createdAt,value
2017-06-19T00:00:20.849Z,99.99
2017-06-19T00:01:20.528Z,99.99
2017-06-19T00:02:20.833Z,99.99
2017-06-19T00:03:20.827Z,99.99
2017-06-19T00:04:20.502Z,99.99
2017-06-19T00:05:20.810Z,99.99
2017-06-19T00:06:20.798Z,99.99
2017-06-19T00:07:20.789Z,99.99
2017-06-19T00:08:20.466Z,99.99
2017-06-19T00:09:20.465Z,99.99
2017-06-19T00:10:20.448Z,99.99
2017-06-19T00:11:20.754Z,99.99
2017-06-19T00:12:20.744Z,99.99
2017-06-19T00:13:20.743Z,99.99
2017-06-19T00:14:20.730Z,99.99
2017-06-19T00:15:20.404Z,99.99
2017-06-19T00:16:20.406Z,99.99
2017-06-19T00:17:20.386Z,99.99
2017-06-19T00:18:20.381Z,99.99
2017-06-19T00:19:20.374Z,99.99
2017-06-19T00:20:20.675Z,99.99
2017-06-19T00:21:20.663Z,99.99
2017-06-19T00:22:20.652Z,99.99
2017-06-19T00:23:20.333Z,99.99
2017-06-19T00:24:20.641Z,99.99
2017-06-19T00:25:20.630Z,99.99
2017-06-19T00:26:20.623Z,99.99
2017-06-19T00:27:20.610Z,99.99
2017-06-19T00:28:20.288Z,99.99
2017-06-19T00:29:20.597Z,99.99
2017-06-19T00:30:20.582Z,99.99
2017-06-19T00:31:20.259Z,99.99
2017-06-19T00:32:20.564Z,99.99
2017-06-19T00:33:20.242Z,99.99
2017-06-19T00:34:20.545Z,99.99
2017-06-19T00:35:20.540Z,99.99
2017-06-19T00:36:20.579Z,99.99
2017-06-19T00:37:20.519Z,99.99
2017-06-19T00:38:20.196Z,99.99
2017-06-19T00:39:20.501Z,99.99
2017-06-19T00:40:20.495Z,99.99
2017-06-19T00:41:20.170Z,99.99
2017-06-19T00:42:20.480Z,99.99
2017-06-19T00:43:20.471Z,99.99
2017-06-19T00:44:20.458Z,99.99
2017-06-19T00:45:20.453Z,99.99
2017-06-19T00:46:20.125Z,99.99
2017-06-19T00:47:20.115Z,99.99
2017-06-19T00:48:20.106Z,99.99
2017-06-19T00:49:20.099Z,99.99
2017-06-19T00:50:20.398Z,99.99
2017-06-19T00:51:20.088Z,99.99
2017-06-19T00:52:20.386Z,99.99
2017-06-19T00:53:20.060Z,99.99
2017-06-19T00:54:20.369Z,99.99
2017-06-19T00:55:20.044Z,99.99
2017-06-19T00:56:20.348Z,99.99
2017-06-19T00:57:20.340Z,99.99
2017-06-19T00:58:20.013Z,99.99
2017-06-19T00:59:20.319Z,99.99
2017-06-19T01:00:20.308Z,99.99
2017-06-19T01:01:19.985Z,99.99
2017-06-19T01:02:20.292Z,99.99
2017-06-19T01:03:20.280Z,99.99
2017-06-19T01:04:19.960Z,99.99
2017-06-19T01:05:20.261Z,99.99
2017-06-19T01:06:20.290Z,99.99
2017-06-19T01:07:19.933Z,99.99
2017-06-19T01:08:20.233Z,99.99
2017-06-19T01:09:20.223Z,99.99
2017-06-19T01:10:19.904Z,99.99
2017-06-19T01:11:20.204Z,99.99
2017-06-19T01:12:20.199Z,99.99
2017-06-19T01:13:20.209Z,99.99
2017-06-19T01:14:20.179Z,99.99
2017-06-19T01:15:20.194Z,99.99
2017-06-19T01:16:20.160Z,99.99
2017-06-19T01:17:20.152Z,99.99
2017-06-19T01:18:20.140Z,99.92
2017-06-19T01:19:20.130Z,99.63
2017-06-19T01:20:19.810Z,99.54
2017-06-19T01:21:20.111Z,99.05
2017-06-19T01:22:19.791Z,99.15
2017-06-19T01:23:19.780Z,99.15
2017-06-19T01:24:20.087Z,99.05
2017-06-19T01:25:19.759Z,99.05
2017-06-19T01:26:20.068Z,98.58
2017-06-19T01:27:19.744Z,98.67
2017-06-19T01:28:19.734Z,99.05
2017-06-19T01:29:19.926Z,98.38
2017-06-19T01:30:19.719Z,98.1
2017-06-19T01:31:20.020Z,98.48
2017-06-19T01:32:19.696Z,98
2017-06-19T01:33:20.000Z,97.81
2017-06-19T01:34:19.991Z,97.91
2017-06-19T01:35:19.978Z,98.38
2017-06-19T01:36:19.657Z,97.91
2017-06-19T01:37:19.648Z,97.91
2017-06-19T01:38:19.954Z,98.29
2017-06-19T01:39:19.944Z,98
2017-06-19T01:40:19.933Z,98.38
2017-06-19T01:41:19.608Z,98.1
2017-06-19T01:42:19.913Z,98.1
2017-06-19T01:43:19.904Z,97.91
2017-06-19T01:44:19.891Z,98
2017-06-19T01:45:19.887Z,97.52
2017-06-19T01:46:19.873Z,97.81
2017-06-19T01:47:19.867Z,97.91
2017-06-19T01:48:19.857Z,97.86
2017-06-19T01:49:19.537Z,98
2017-06-19T01:50:19.836Z,97.76
2017-06-19T01:51:19.826Z,97.56
2017-06-19T01:52:19.814Z,97.19
2017-06-19T01:53:19.547Z,97.38
2017-06-19T01:54:19.797Z,97.52
2017-06-19T01:55:19.789Z,97.76
2017-06-19T01:56:19.465Z,97.19
2017-06-19T01:57:19.457Z,97.56
2017-06-19T01:58:19.761Z,97.28
2017-06-19T01:59:19.747Z,97.09
2017-06-19T02:00:19.742Z,96.99
2017-06-19T02:01:19.729Z,97.09
2017-06-19T02:02:19.724Z,96.61
2017-06-19T02:03:19.398Z,96.32
2017-06-19T02:04:19.702Z,96.8
2017-06-19T02:05:19.691Z,96.51
2017-06-19T02:06:19.682Z,96.03
2017-06-19T02:07:19.361Z,95.65
2017-06-19T02:08:19.349Z,94.79
2017-06-19T02:09:19.339Z,94.49
2017-06-19T02:10:19.645Z,94.88
2017-06-19T02:11:19.321Z,94.69
2017-06-19T02:12:19.626Z,94.31
2017-06-19T02:13:19.614Z,94.21
2017-06-19T02:14:19.293Z,95.17
2017-06-19T02:15:19.596Z,94.31
2017-06-19T02:16:19.270Z,94.4
2017-06-19T02:17:19.572Z,94.31
2017-06-19T02:18:19.256Z,94.49
2017-06-19T02:19:19.555Z,94.02
2017-06-19T02:20:19.550Z,94.02
2017-06-19T02:21:19.221Z,93.92
2017-06-19T02:22:19.526Z,94.02
2017-06-19T02:23:19.518Z,93.35
2017-06-19T02:24:19.508Z,93.44
2017-06-19T02:25:19.187Z,93.25
2017-06-19T02:26:19.173Z,93.35
2017-06-19T02:27:19.474Z,93.06
2017-06-19T02:28:19.471Z,93.06
2017-06-19T02:29:19.458Z,93.35
2017-06-19T02:30:19.138Z,93.92
2017-06-19T02:31:19.440Z,93.44
2017-06-19T02:32:19.114Z,93.92
2017-06-19T02:33:19.419Z,93.82
2017-06-19T02:34:19.483Z,94.12
2017-06-19T02:35:19.085Z,94.12
2017-06-19T02:36:19.075Z,93.54
2017-06-19T02:37:19.069Z,93.54
2017-06-19T02:38:19.061Z,93.06
2017-06-19T02:39:19.358Z,92.96
2017-06-19T02:40:19.350Z,93.15
2017-06-19T02:41:19.339Z,93.35
2017-06-19T02:42:19.331Z,93.15
2017-06-19T02:43:19.320Z,92.68
2017-06-19T02:44:18.998Z,92.68
2017-06-19T02:45:18.983Z,92.86
2017-06-19T02:46:19.320Z,92.48
2017-06-19T02:47:18.965Z,92
2017-06-19T02:48:19.306Z,91.72
2017-06-19T02:49:18.946Z,91.91
2017-06-19T02:50:18.937Z,91.91
2017-06-19T02:51:18.930Z,91.91
2017-06-19T02:52:19.231Z,91.42
2017-06-19T02:53:19.221Z,90.81
2017-06-19T02:54:19.209Z,91.33
2017-06-19T02:55:19.202Z,90.23
2017-06-19T02:56:19.191Z,90.47
2017-06-19T02:57:19.187Z,90.56
2017-06-19T02:58:19.170Z,90.56
2017-06-19T02:59:19.161Z,90.47
2017-06-19T03:00:19.151Z,90.81
2017-06-19T03:01:18.830Z,90.14
2017-06-19T03:02:19.132Z,90.14
2017-06-19T03:03:18.812Z,90.23
2017-06-19T03:04:18.799Z,90.23
2017-06-19T03:05:19.106Z,90.04
2017-06-19T03:06:18.782Z,90.04
2017-06-19T03:07:18.769Z,89.94
2017-06-19T03:08:19.071Z,89.85
2017-06-19T03:09:19.064Z,89.75
2017-06-19T03:10:18.739Z,88.98
2017-06-19T03:11:19.041Z,88.89
2017-06-19T03:12:19.081Z,88.51
2017-06-19T03:13:18.714Z,88.51
2017-06-19T03:14:19.013Z,88.51
2017-06-19T03:15:19.002Z,88.02
2017-06-19T03:16:18.990Z,87.84
2017-06-19T03:17:18.675Z,87.64
2017-06-19T03:18:18.657Z,87.64
2017-06-19T03:19:18.648Z,87.45
2017-06-19T03:20:18.640Z,87.26
2017-06-19T03:21:18.942Z,87.07
2017-06-19T03:22:18.635Z,87.26
2017-06-19T03:23:18.609Z,87.45
2017-06-19T03:24:18.913Z,87.26
2017-06-19T03:25:18.586Z,87.16
2017-06-19T03:26:18.577Z,86.97
2017-06-19T03:27:18.880Z,87.26
2017-06-19T03:28:18.868Z,86.68
2017-06-19T03:29:19.062Z,86.97
2017-06-19T03:30:18.852Z,87.07
2017-06-19T03:31:18.844Z,87.35
2017-06-19T03:32:18.514Z,87.07
2017-06-19T03:33:18.820Z,86.88
2017-06-19T03:34:18.494Z,86.4
2017-06-19T03:35:18.800Z,86.3
2017-06-19T03:36:18.788Z,85.63
2017-06-19T03:37:18.464Z,86.49
2017-06-19T03:38:18.454Z,86.4
2017-06-19T03:39:18.757Z,86.21
2017-06-19T03:40:18.434Z,85.34
2017-06-19T03:41:18.424Z,85.34
2017-06-19T03:42:18.728Z,85.82
2017-06-19T03:43:18.726Z,85.44
2017-06-19T03:44:18.393Z,85.44
2017-06-19T03:45:18.386Z,85.25
2017-06-19T03:46:18.685Z,85.05
2017-06-19T03:47:18.679Z,85.05
2017-06-19T03:48:18.669Z,84.58
2017-06-19T03:49:18.345Z,84.67
2017-06-19T03:50:18.333Z,84.67
2017-06-19T03:51:18.321Z,84
2017-06-19T03:52:18.314Z,84.28
2017-06-19T03:53:18.613Z,84.09
2017-06-19T03:54:18.290Z,84.28
2017-06-19T03:55:18.597Z,84.19
2017-06-19T03:56:18.275Z,84.19
2017-06-19T03:57:18.575Z,84
2017-06-19T03:58:18.564Z,84.09
2017-06-19T03:59:18.553Z,84.09
2017-06-19T04:00:18.241Z,84
2017-06-19T04:01:18.535Z,83.52
2017-06-19T04:02:18.219Z,83.71
2017-06-19T04:03:18.563Z,83.61
2017-06-19T04:04:18.191Z,83.52
2017-06-19T04:05:18.182Z,82.85
2017-06-19T04:06:18.496Z,82.65
2017-06-19T04:07:18.471Z,83.04
2017-06-19T04:08:18.474Z,82.85
2017-06-19T04:09:18.157Z,82.85
2017-06-19T04:10:18.460Z,82.98
2017-06-19T04:11:18.463Z,82.65
2017-06-19T04:12:18.462Z,83.08
2017-06-19T04:13:18.463Z,83.18
2017-06-19T04:14:18.408Z,82.98
2017-06-19T04:15:18.407Z,82.41
2017-06-19T04:16:18.070Z,82.37
2017-06-19T04:17:18.373Z,82.37
2017-06-19T04:18:18.393Z,81.93
2017-06-19T04:19:18.038Z,81.84
2017-06-19T04:20:18.343Z,82.21
2017-06-19T04:21:18.019Z,82.03
2017-06-19T04:22:18.320Z,81.54
2017-06-19T04:23:18.314Z,81.45
2017-06-19T04:24:18.300Z,81.54
2017-06-19T04:25:18.291Z,81.35
2017-06-19T04:26:17.970Z,81.74
2017-06-19T04:27:18.274Z,81.54
2017-06-19T04:28:18.263Z,81.45
2017-06-19T04:29:18.251Z,81.35
2017-06-19T04:30:17.929Z,81.54
2017-06-19T04:31:17.924Z,81.64
2017-06-19T04:32:18.227Z,81.64
2017-06-19T04:33:18.219Z,81.54
2017-06-19T04:34:17.889Z,81.54
2017-06-19T04:35:18.194Z,81.45
2017-06-19T04:36:18.186Z,81.35
2017-06-19T04:37:18.184Z,81.26
2017-06-19T04:38:17.851Z,81.54
2017-06-19T04:39:18.156Z,81.84
2017-06-19T04:40:17.860Z,81.84
2017-06-19T04:41:17.825Z,81.74
2017-06-19T04:42:17.812Z,81.74
2017-06-19T04:43:17.807Z,81.84
2017-06-19T04:44:18.125Z,81.68
2017-06-19T04:45:18.096Z,81.59
2017-06-19T04:46:17.800Z,81.59
2017-06-19T04:47:17.765Z,81.97
2017-06-19T04:48:18.066Z,81.87
2017-06-19T04:49:17.748Z,82.26
2017-06-19T04:50:17.734Z,82.07
2017-06-19T04:51:18.038Z,81.4
2017-06-19T04:52:17.719Z,82.16
2017-06-19T04:53:18.021Z,82.26
2017-06-19T04:54:18.010Z,81.78
2017-06-19T04:55:17.688Z,81.4
2017-06-19T04:56:17.679Z,81.78
2017-06-19T04:57:17.667Z,81.49
2017-06-19T04:58:17.658Z,82.07
2017-06-19T04:59:17.969Z,82.54
2017-06-19T05:00:17.952Z,81.78
2017-06-19T05:01:17.942Z,82.35
2017-06-19T05:02:17.620Z,82.54
2017-06-19T05:03:17.924Z,82.87
2017-06-19T05:04:17.912Z,83.07
2017-06-19T05:05:17.906Z,82.68
2017-06-19T05:06:17.898Z,82.49
2017-06-19T05:07:17.885Z,82.78
2017-06-19T05:08:17.874Z,82.87
2017-06-19T05:09:17.552Z,82.78
2017-06-19T05:10:17.548Z,82.87
2017-06-19T05:11:17.845Z,82.87
2017-06-19T05:12:17.530Z,82.68
2017-06-19T05:13:17.514Z,82.97
2017-06-19T05:14:17.819Z,83.16
2017-06-19T05:15:17.808Z,82.87
2017-06-19T05:16:17.485Z,83.74
2017-06-19T05:17:17.481Z,83.54
2017-06-19T05:18:17.469Z,82.4
2017-06-19T05:19:17.459Z,82.97
2017-06-19T05:20:17.762Z,82.4
2017-06-19T05:21:17.752Z,83.3
2017-06-19T05:22:17.432Z,82.82
2017-06-19T05:23:17.735Z,83.69
2017-06-19T05:24:17.724Z,84.07
2017-06-19T05:25:17.720Z,84.26
2017-06-19T05:26:17.394Z,83.78
2017-06-19T05:27:17.385Z,83.87
2017-06-19T05:28:17.375Z,84.36
2017-06-19T05:29:18.081Z,84.26
2017-06-19T05:30:17.674Z,84.55
2017-06-19T05:31:17.660Z,84.36
2017-06-19T05:32:17.655Z,83.97
2017-06-19T05:33:17.330Z,84.55
2017-06-19T05:34:17.633Z,84.84
2017-06-19T05:35:17.624Z,85.03
2017-06-19T05:36:17.618Z,85.32
2017-06-19T05:37:17.293Z,86.28
2017-06-19T05:38:17.291Z,86.38
2017-06-19T05:39:17.277Z,86.18
2017-06-19T05:40:17.582Z,85.94
2017-06-19T05:41:17.257Z,86.61
2017-06-19T05:42:17.560Z,87.09
2017-06-19T05:43:17.238Z,86.71
2017-06-19T05:44:17.230Z,87.29
2017-06-19T05:45:17.539Z,87.29
2017-06-19T05:46:17.524Z,87.29
2017-06-19T05:47:17.519Z,87.76
2017-06-19T05:48:17.192Z,85.75
2017-06-19T05:49:17.187Z,86.9
2017-06-19T05:50:17.488Z,87.09
2017-06-19T05:51:17.167Z,87.57
2017-06-19T05:52:17.161Z,87.48
2017-06-19T05:53:17.149Z,87.57
2017-06-19T05:54:17.454Z,87.81
2017-06-19T05:55:17.446Z,88.77
2017-06-19T05:56:17.485Z,89.15
2017-06-19T05:57:17.430Z,89.15
2017-06-19T05:58:17.110Z,89.83
2017-06-19T05:59:17.105Z,89.83
2017-06-19T06:00:17.402Z,89.83
2017-06-19T06:01:17.395Z,90.21
2017-06-19T06:02:17.074Z,89.15
2017-06-19T06:03:17.070Z,89.83
2017-06-19T06:04:17.368Z,90.89
2017-06-19T06:05:17.360Z,90.79
2017-06-19T06:06:17.350Z,91.56
2017-06-19T06:07:17.034Z,91.99
2017-06-19T06:08:17.338Z,92.33
2017-06-19T06:09:17.014Z,92.28
2017-06-19T06:10:17.317Z,93.24
2017-06-19T06:11:17.313Z,93.15
2017-06-19T06:12:17.302Z,92.76
2017-06-19T06:13:16.977Z,93.15
2017-06-19T06:14:16.972Z,93.33
2017-06-19T06:15:16.963Z,93.72
2017-06-19T06:16:17.268Z,93.33
2017-06-19T06:17:17.260Z,94.87
2017-06-19T06:18:17.249Z,97.86
2017-06-19T06:19:17.245Z,99.99
2017-06-19T06:20:16.925Z,99.99
2017-06-19T06:21:17.228Z,99.99
2017-06-19T06:22:17.220Z,99.99
2017-06-19T06:23:17.215Z,99.99
2017-06-19T06:24:17.206Z,99.99
2017-06-19T06:25:17.200Z,99.99
2017-06-19T06:26:16.883Z,99.99
2017-06-19T06:27:17.185Z,99.99
2017-06-19T06:28:17.182Z,99.99
2017-06-19T06:29:17.176Z,99.99
2017-06-19T06:30:16.852Z,99.99
2017-06-19T06:31:16.850Z,99.99
2017-06-19T06:32:17.153Z,99.99
2017-06-19T06:33:17.149Z,99.99
2017-06-19T06:34:16.827Z,99.99
2017-06-19T06:35:17.134Z,99.99
2017-06-19T06:36:17.128Z,99.99
2017-06-19T06:37:17.120Z,99.99
2017-06-19T06:38:16.801Z,99.99
2017-06-19T06:39:16.793Z,99.99
2017-06-19T06:40:16.788Z,99.99
2017-06-19T06:41:16.783Z,99.99
2017-06-19T06:42:17.086Z,99.99
2017-06-19T06:43:17.079Z,99.99
2017-06-19T06:44:17.072Z,99.99
2017-06-19T06:45:17.068Z,99.99
2017-06-19T06:46:16.749Z,99.99
2017-06-19T06:47:16.740Z,99.99
2017-06-19T06:48:16.732Z,99.99
2017-06-19T06:49:17.040Z,99.99
2017-06-19T06:50:17.032Z,99.99
2017-06-19T06:51:17.055Z,99.99
2017-06-19T06:52:16.710Z,99.99
2017-06-19T06:53:17.019Z,99.99
2017-06-19T06:54:16.698Z,97.71
2017-06-19T06:55:16.695Z,91.28
2017-06-19T06:56:16.690Z,81.03
2017-06-19T06:57:17.003Z,78.86
2017-06-19T06:58:16.994Z,75.39
2017-06-19T06:59:16.675Z,73.5
2017-06-19T07:00:16.981Z,72.37
2017-06-19T07:01:16.663Z,68
2017-06-19T07:02:16.657Z,68.85
2017-06-19T07:03:16.654Z,66.3
2017-06-19T07:04:16.647Z,66.24
2017-06-19T07:05:16.954Z,62.54
2017-06-19T07:06:16.949Z,62.35
2017-06-19T07:07:16.945Z,61.66
2017-06-19T07:08:16.942Z,63.33
2017-06-19T07:09:16.624Z,65.16
2017-06-19T07:10:16.930Z,64.8
2017-06-19T07:11:16.926Z,65.81
2017-06-19T07:12:16.914Z,65
2017-06-19T07:13:16.912Z,66.47
2017-06-19T07:14:16.596Z,65.62
2017-06-19T07:15:16.594Z,63.4
2017-06-19T07:16:16.589Z,63.66
2017-06-19T07:17:16.892Z,62.68
2017-06-19T07:18:16.577Z,61.83
2017-06-19T07:19:16.881Z,62.41
2017-06-19T07:20:16.564Z,60.19
2017-06-19T07:21:16.559Z,60.29
2017-06-19T07:22:16.873Z,60.39
2017-06-19T07:23:16.867Z,60.88
2017-06-19T07:24:16.555Z,60.22
2017-06-19T07:25:16.858Z,60.35
2017-06-19T07:26:16.542Z,59.59
2017-06-19T07:27:16.539Z,58.64
2017-06-19T07:28:16.855Z,59.13
2017-06-19T07:29:16.852Z,59.52
2017-06-19T07:30:16.850Z,56.7
2017-06-19T07:31:16.530Z,58.64
2017-06-19T07:32:16.532Z,57.82
2017-06-19T07:33:16.844Z,58.64
2017-06-19T07:34:16.529Z,55.52
2017-06-19T07:35:16.526Z,57.1
2017-06-19T07:36:16.840Z,55.75
2017-06-19T07:37:16.529Z,57.03
2017-06-19T07:38:16.839Z,55.28
2017-06-19T07:39:16.838Z,56.76
2017-06-19T07:40:16.526Z,54.91
2017-06-19T07:41:16.525Z,54.55
2017-06-19T07:42:16.523Z,53.66
2017-06-19T07:43:16.836Z,52.61
2017-06-19T07:44:16.527Z,52.01
2017-06-19T07:45:16.840Z,50.83
2017-06-19T07:46:16.840Z,51.52
2017-06-19T07:47:16.529Z,50.83
2017-06-19T07:48:16.562Z,51.25
2017-06-19T07:49:16.531Z,49.77
2017-06-19T07:50:16.531Z,51.07
2017-06-19T07:51:16.848Z,48.91
2017-06-19T07:52:16.847Z,49.1
2017-06-19T07:53:16.850Z,48.12
2017-06-19T07:54:16.851Z,49.18
2017-06-19T07:55:16.854Z,50.36
2017-06-19T07:56:16.541Z,48.98
2017-06-19T07:57:16.882Z,48.98
2017-06-19T07:58:16.859Z,49.08
2017-06-19T07:59:16.857Z,48.39
2017-06-19T08:00:16.862Z,48.88
2017-06-19T08:01:16.865Z,49.28
2017-06-19T08:02:16.864Z,49.2
2017-06-19T08:03:16.870Z,49.1
2017-06-19T08:04:16.557Z,49.2
2017-06-19T08:05:16.881Z,47.53
2017-06-19T08:06:16.562Z,49.08
2017-06-19T08:07:16.882Z,49.97
2017-06-19T08:08:16.881Z,49.2
2017-06-19T08:09:16.571Z,48.12
2017-06-19T08:10:16.571Z,47.33
2017-06-19T08:11:16.885Z,48.54
2017-06-19T08:12:16.890Z,48.24
2017-06-19T08:13:16.893Z,46.76
2017-06-19T08:14:16.895Z,47.06
2017-06-19T08:15:16.895Z,47.94
2017-06-19T08:16:16.589Z,47.35
2017-06-19T08:17:16.902Z,46.19
2017-06-19T08:18:16.904Z,45.57
2017-06-19T08:19:16.596Z,46.29
2017-06-19T08:20:16.910Z,46.78
2017-06-19T08:21:16.600Z,46.78
2017-06-19T08:22:16.917Z,46.81
2017-06-19T08:23:16.610Z,47.3
2017-06-19T08:24:16.922Z,47.1
2017-06-19T08:25:16.928Z,46.14
2017-06-19T08:26:16.932Z,45.84
2017-06-19T08:27:16.625Z,45.54
2017-06-19T08:28:16.625Z,46.7
2017-06-19T08:29:16.631Z,46.33
2017-06-19T08:30:16.945Z,46.93
2017-06-19T08:31:16.637Z,44.26
2017-06-19T08:32:16.639Z,43.96
2017-06-19T08:33:16.954Z,46.51
2017-06-19T08:34:16.958Z,46.88
2017-06-19T08:35:16.648Z,46.41
2017-06-19T08:36:16.967Z,46.53
2017-06-19T08:37:16.966Z,44.06
2017-06-19T08:38:16.664Z,44.75
2017-06-19T08:39:16.976Z,44.58
2017-06-19T08:40:16.675Z,44.38
2017-06-19T08:41:16.984Z,44.97
2017-06-19T08:42:16.988Z,44.18
2017-06-19T08:43:16.991Z,43.12
2017-06-19T08:44:16.681Z,44.38
2017-06-19T08:45:16.686Z,43.21
2017-06-19T08:46:16.692Z,42.52
2017-06-19T08:47:16.694Z,41.63
2017-06-19T08:48:16.701Z,41.89
2017-06-19T08:49:17.018Z,41.79
2017-06-19T08:50:16.706Z,42.08
2017-06-19T08:51:16.714Z,41.69
2017-06-19T08:52:17.067Z,40.8
2017-06-19T08:53:17.031Z,41.97
2017-06-19T08:54:17.037Z,43.52
2017-06-19T08:55:17.037Z,44.67
2017-06-19T08:56:17.041Z,46.99
2017-06-19T08:57:17.043Z,49.08
2017-06-19T08:58:17.046Z,49.53
2017-06-19T08:59:17.052Z,50.37
2017-06-19T09:00:17.056Z,50.54
2017-06-19T09:01:16.746Z,51
2017-06-19T09:02:17.058Z,47.16
2017-06-19T09:03:17.086Z,48.33
2017-06-19T09:04:17.065Z,48.21
2017-06-19T09:05:16.751Z,48.58
2017-06-19T09:06:17.068Z,51.98
2017-06-19T09:07:17.068Z,52.44
2017-06-19T09:08:16.756Z,53.2
2017-06-19T09:09:17.070Z,54.38
2017-06-19T09:10:17.071Z,53.56
2017-06-19T09:11:17.074Z,54.81
2017-06-19T09:12:17.081Z,57.54
2017-06-19T09:13:17.074Z,55.86
2017-06-19T09:14:17.076Z,57.03
2017-06-19T09:15:17.078Z,56.05
2017-06-19T09:16:17.079Z,54.83
2017-06-19T09:17:17.081Z,53.33
2017-06-19T09:18:17.083Z,52.89
2017-06-19T09:19:16.773Z,52.06
2017-06-19T09:20:16.774Z,53.09
2017-06-19T09:21:16.779Z,51.96
2017-06-19T09:22:17.093Z,50.29
2017-06-19T09:23:16.783Z,50.34
2017-06-19T09:24:17.097Z,50.07
2017-06-19T09:25:17.100Z,50.19
2017-06-19T09:26:17.103Z,47.85
2017-06-19T09:27:17.106Z,47.58
2017-06-19T09:28:17.109Z,47.19
2017-06-19T09:29:17.115Z,47.31
2017-06-19T09:30:17.317Z,47.53
2017-06-19T09:31:17.126Z,45.18
2017-06-19T09:32:17.125Z,46.56
2017-06-19T09:33:17.129Z,44.69
2017-06-19T09:34:17.131Z,47.35
2017-06-19T09:35:17.135Z,43.88
2017-06-19T09:36:16.832Z,45.46
2017-06-19T09:37:16.836Z,45.36
2017-06-19T09:38:17.151Z,44.27
2017-06-19T09:39:16.842Z,45.16
2017-06-19T09:40:17.160Z,44.47
2017-06-19T09:41:17.164Z,43.51
2017-06-19T09:42:16.860Z,41.85
2017-06-19T09:43:17.176Z,43.11
2017-06-19T09:44:16.869Z,42.91
2017-06-19T09:45:17.196Z,42.82
2017-06-19T09:46:17.187Z,41.73
2017-06-19T09:47:17.193Z,41.73
2017-06-19T09:48:17.196Z,41.53
2017-06-19T09:49:16.888Z,41.14
2017-06-19T09:50:16.896Z,41.83
2017-06-19T09:51:17.211Z,40.92
2017-06-19T09:52:16.903Z,42.4
2017-06-19T09:53:17.219Z,42.1
2017-06-19T09:54:17.222Z,42
2017-06-19T09:55:17.233Z,42.69
2017-06-19T09:56:17.233Z,41.31
2017-06-19T09:57:17.239Z,41.61
2017-06-19T09:58:16.934Z,40.72
2017-06-19T09:59:16.935Z,43.19
2017-06-19T10:00:17.001Z,41.51
2017-06-19T10:01:16.945Z,42.89
2017-06-19T10:02:17.261Z,41.22
2017-06-19T10:03:16.956Z,40.33
2017-06-19T10:04:17.269Z,40.63
2017-06-19T10:05:17.275Z,43.78
2017-06-19T10:06:16.970Z,42.72
2017-06-19T10:07:17.285Z,40.15
2017-06-19T10:08:16.978Z,40.84
2017-06-19T10:09:17.298Z,42.91
2017-06-19T10:10:17.302Z,39.76
2017-06-19T10:11:17.312Z,41.83
2017-06-19T10:12:17.000Z,41.36
2017-06-19T10:13:17.320Z,41.46
2017-06-19T10:14:17.321Z,42.05
2017-06-19T10:15:17.016Z,42.85
2017-06-19T10:16:17.334Z,41.47
2017-06-19T10:17:17.340Z,40.01
2017-06-19T10:18:17.029Z,43.21
2017-06-19T10:19:17.035Z,43.31
2017-06-19T10:20:17.355Z,44.02
2017-06-19T10:21:17.048Z,43.15
2017-06-19T10:22:17.366Z,43.45
2017-06-19T10:23:17.374Z,44.54
2017-06-19T10:24:17.374Z,45.03
2017-06-19T10:25:17.381Z,44.46
2017-06-19T10:26:17.074Z,42.56
2017-06-19T10:27:17.081Z,42.5
2017-06-19T10:28:17.400Z,44.18
2017-06-19T10:29:17.091Z,42.99
2017-06-19T10:30:17.415Z,42.3
2017-06-19T10:31:17.107Z,43.21
2017-06-19T10:32:17.112Z,41.14
2017-06-19T10:33:17.431Z,43.12
2017-06-19T10:34:17.155Z,42.22
2017-06-19T10:35:17.445Z,41.33
2017-06-19T10:36:17.133Z,41.73
2017-06-19T10:37:17.142Z,41.85
2017-06-19T10:38:17.461Z,41.46
2017-06-19T10:39:17.466Z,41.67
2017-06-19T10:40:17.164Z,43.26
2017-06-19T10:41:17.475Z,41.65
2017-06-19T10:42:17.196Z,41.14
2017-06-19T10:43:17.177Z,41.36
2017-06-19T10:44:17.182Z,43.61
2017-06-19T10:45:17.501Z,43.31
2017-06-19T10:46:17.197Z,40.25
2017-06-19T10:47:17.516Z,40.15
2017-06-19T10:48:17.207Z,39.64
2017-06-19T10:49:17.529Z,41.2
2017-06-19T10:50:17.223Z,40.31
2017-06-19T10:51:17.540Z,39.52
2017-06-19T10:52:17.553Z,40.47
2017-06-19T10:53:17.554Z,44.29
2017-06-19T10:54:17.561Z,43.62
2017-06-19T10:55:17.567Z,41.77
2017-06-19T10:56:17.574Z,42.97
2017-06-19T10:57:17.586Z,41.59
2017-06-19T10:58:17.587Z,41.71
2017-06-19T10:59:17.595Z,43.27
2017-06-19T11:00:17.600Z,41.81
2017-06-19T11:01:17.299Z,42.21
2017-06-19T11:02:17.613Z,42.03
2017-06-19T11:03:17.308Z,42.13
2017-06-19T11:04:17.313Z,42.4
2017-06-19T11:05:17.632Z,42.21
2017-06-19T11:06:17.642Z,41.81
2017-06-19T11:07:17.334Z,41.83
2017-06-19T11:08:17.653Z,42.22
2017-06-19T11:09:17.348Z,43.12
2017-06-19T11:10:17.354Z,41.65
2017-06-19T11:11:17.679Z,41.73
2017-06-19T11:12:17.367Z,40.74
2017-06-19T11:13:17.687Z,40.61
2017-06-19T11:14:17.384Z,42.97
2017-06-19T11:15:17.387Z,43.17
2017-06-19T11:16:17.709Z,42.68
2017-06-19T11:17:17.715Z,45.35
2017-06-19T11:18:17.411Z,41.2
2017-06-19T11:19:17.418Z,43.47
2017-06-19T11:20:17.425Z,43.96
2017-06-19T11:21:17.742Z,40.8
2017-06-19T11:22:17.438Z,41.49
2017-06-19T11:23:17.760Z,42.08
2017-06-19T11:24:17.451Z,40.31
2017-06-19T11:25:17.791Z,41.69
2017-06-19T11:26:17.780Z,41.59
2017-06-19T11:27:17.784Z,43.17
2017-06-19T11:28:17.479Z,42.5
2017-06-19T11:29:17.800Z,40.23
2017-06-19T11:30:18.008Z,44.28
2017-06-19T11:31:17.810Z,42.72
2017-06-19T11:32:17.817Z,41.93
2017-06-19T11:33:17.828Z,41.61
2017-06-19T11:34:17.831Z,42.5
2017-06-19T11:35:17.854Z,43.51
2017-06-19T11:36:17.844Z,42.72
2017-06-19T11:37:17.856Z,43.61
2017-06-19T11:38:17.857Z,40.26
2017-06-19T11:39:17.552Z,40.26
2017-06-19T11:40:17.874Z,40.37
2017-06-19T11:41:17.880Z,39.77
2017-06-19T11:42:17.883Z,41.38
2017-06-19T11:43:17.893Z,41.47
2017-06-19T11:44:17.586Z,42.27
2017-06-19T11:45:17.904Z,43.13
2017-06-19T11:46:17.597Z,41.65
2017-06-19T11:47:17.606Z,42.25
2017-06-19T11:48:17.931Z,42.25
2017-06-19T11:49:17.933Z,41.85
2017-06-19T11:50:17.628Z,41.67
2017-06-19T11:51:17.947Z,39.79
2017-06-19T11:52:17.955Z,38.11
2017-06-19T11:53:17.648Z,35.75
2017-06-19T11:54:17.966Z,38.6
2017-06-19T11:55:17.995Z,37.91
2017-06-19T11:56:17.667Z,36.35
2017-06-19T11:57:17.994Z,36.71
2017-06-19T11:58:17.993Z,36.9
2017-06-19T11:59:18.002Z,38.27
2017-06-19T12:00:17.693Z,38.47
2017-06-19T12:01:17.701Z,39.16
2017-06-19T12:02:18.023Z,37.7
2017-06-19T12:03:17.717Z,37.41
2017-06-19T12:04:18.038Z,38.51
2017-06-19T12:05:17.731Z,35.65
2017-06-19T12:06:18.047Z,35.77
2017-06-19T12:07:18.058Z,38.72
2017-06-19T12:08:18.069Z,39.93
2017-06-19T12:09:18.067Z,40.92
2017-06-19T12:10:17.765Z,37.05
2017-06-19T12:11:17.771Z,40.52
2017-06-19T12:12:17.775Z,40.42
2017-06-19T12:13:18.094Z,39.34
2017-06-19T12:14:18.105Z,39.53
2017-06-19T12:15:18.109Z,40.55
2017-06-19T12:16:18.115Z,39.45
2017-06-19T12:17:18.120Z,38.56
2017-06-19T12:18:18.130Z,36.86
2017-06-19T12:19:18.137Z,37.41
2017-06-19T12:20:18.142Z,40.17
2017-06-19T12:21:18.159Z,40.19
2017-06-19T12:22:18.188Z,38.7
2017-06-19T12:23:18.162Z,39.69
2017-06-19T12:24:18.188Z,41.3
2017-06-19T12:25:18.186Z,41.2
2017-06-19T12:26:17.869Z,40.5
2017-06-19T12:27:17.876Z,38.94
2017-06-19T12:28:18.205Z,39.42
2017-06-19T12:29:18.204Z,39.91
2017-06-19T12:30:18.218Z,41.31
2017-06-19T12:31:17.905Z,38.17
2017-06-19T12:32:17.913Z,36.66
2017-06-19T12:33:18.231Z,38.44
2017-06-19T12:34:18.240Z,38.05
2017-06-19T12:35:18.245Z,37.75
2017-06-19T12:36:18.251Z,37.27
2017-06-19T12:37:18.259Z,35.49
2017-06-19T12:38:18.273Z,37.05
2017-06-19T12:39:18.284Z,37.17
2017-06-19T12:40:17.968Z,39.45
2017-06-19T12:41:17.974Z,36.98
2017-06-19T12:42:18.297Z,37.96
2017-06-19T12:43:18.303Z,38.36
2017-06-19T12:44:18.309Z,38.96
2017-06-19T12:45:18.002Z,38.44
2017-06-19T12:46:18.329Z,37.95
2017-06-19T12:47:18.018Z,39.23
2017-06-19T12:48:18.340Z,39.14
2017-06-19T12:49:18.031Z,38.34
2017-06-19T12:50:18.349Z,40.33
2017-06-19T12:51:18.358Z,39.15
2017-06-19T12:52:18.367Z,39.75
2017-06-19T12:53:18.374Z,38.66
2017-06-19T12:54:18.069Z,39.45
2017-06-19T12:55:18.391Z,39.45